sensor_id;sensor_type;location;lat;lon;timestamp;P1;durP1;ratioP1;P2;durP2;ratioP2
75021;SDS011;63583;49.976;20.182;2024-01-16T00:01:43;8.75;;;3.88;;
75021;SDS011;63583;49.976;20.182;2024-01-16T00:04:10;5.43;;;3.50;;
75021;SDS011;63583;49.976;20.182;2024-01-16T00:06:41;9.45;;;3.97;;
75021;SDS011;63583;49.976;20.182;2024-01-16T00:09:08;6.85;;;3.85;;
75021;SDS011;63583;49.976;20.182;2024-01-16T00:11:44;6.15;;;3.45;;
75021;SDS011;63583;49.976;20.182;2024-01-16T00:14:10;7.97;;;3.97;;
75021;SDS011;63583;49.976;20.182;2024-01-16T00:16:42;8.40;;;3.85;;
75021;SDS011;63583;49.976;20.182;2024-01-16T00:19:12;7.03;;;3.28;;
75021;SDS011;63583;49.976;20.182;2024-01-16T00:21:41;4.32;;;2.90;;
75021;SDS011;63583;49.976;20.182;2024-01-16T00:24:08;7.28;;;3.92;;
75021;SDS011;63583;49.976;20.182;2024-01-16T00:26:33;7.78;;;3.47;;
75021;SDS011;63583;49.976;20.182;2024-01-16T00:29:00;6.78;;;3.85;;
75021;SDS011;63583;49.976;20.182;2024-01-16T00:31:26;6.03;;;3.83;;
75021;SDS011;63583;49.976;20.182;2024-01-16T00:33:52;8.00;;;4.10;;
75021;SDS011;63583;49.976;20.182;2024-01-16T00:36:17;5.25;;;3.00;;
75021;SDS011;63583;49.976;20.182;2024-01-16T00:38:44;6.38;;;3.90;;
75021;SDS011;63583;49.976;20.182;2024-01-16T00:41:12;5.97;;;3.42;;
75021;SDS011;63583;49.976;20.182;2024-01-16T00:43:39;9.73;;;3.72;;
75021;SDS011;63583;49.976;20.182;2024-01-16T00:46:05;6.78;;;2.97;;
75021;SDS011;63583;49.976;20.182;2024-01-16T00:48:31;6.93;;;3.05;;
75021;SDS011;63583;49.976;20.182;2024-01-16T00:50:57;8.88;;;3.85;;
75021;SDS011;63583;49.976;20.182;2024-01-16T00:53:23;8.35;;;4.32;;
75021;SDS011;63583;49.976;20.182;2024-01-16T00:55:49;6.13;;;3.78;;
75021;SDS011;63583;49.976;20.182;2024-01-16T00:58:15;5.90;;;3.42;;
75021;SDS011;63583;49.976;20.182;2024-01-16T01:00:41;5.57;;;3.40;;
75021;SDS011;63583;49.976;20.182;2024-01-16T01:03:07;5.47;;;3.40;;
75021;SDS011;63583;49.976;20.182;2024-01-16T01:05:33;5.20;;;2.40;;
75021;SDS011;63583;49.976;20.182;2024-01-16T01:07:59;7.15;;;3.70;;
75021;SDS011;63583;49.976;20.182;2024-01-16T01:10:24;8.40;;;3.60;;
75021;SDS011;63583;49.976;20.182;2024-01-16T01:12:51;4.65;;;2.33;;
75021;SDS011;63583;49.976;20.182;2024-01-16T01:15:19;6.72;;;3.38;;
75021;SDS011;63583;49.976;20.182;2024-01-16T01:17:48;6.75;;;3.55;;
75021;SDS011;63583;49.976;20.182;2024-01-16T01:20:14;7.50;;;3.92;;
75021;SDS011;63583;49.976;20.182;2024-01-16T01:22:40;6.65;;;3.40;;
75021;SDS011;63583;49.976;20.182;2024-01-16T01:25:06;8.52;;;3.88;;
75021;SDS011;63583;49.976;20.182;2024-01-16T01:27:33;7.93;;;2.85;;
75021;SDS011;63583;49.976;20.182;2024-01-16T01:29:58;7.40;;;3.88;;
75021;SDS011;63583;49.976;20.182;2024-01-16T01:32:24;7.50;;;3.97;;
75021;SDS011;63583;49.976;20.182;2024-01-16T01:34:52;7.07;;;4.00;;
75021;SDS011;63583;49.976;20.182;2024-01-16T01:37:18;6.60;;;3.63;;
75021;SDS011;63583;49.976;20.182;2024-01-16T01:39:43;8.15;;;3.13;;
75021;SDS011;63583;49.976;20.182;2024-01-16T01:42:09;9.75;;;3.40;;
75021;SDS011;63583;49.976;20.182;2024-01-16T01:44:35;7.88;;;3.60;;
75021;SDS011;63583;49.976;20.182;2024-01-16T01:47:01;7.82;;;3.85;;
75021;SDS011;63583;49.976;20.182;2024-01-16T01:49:27;7.00;;;3.67;;
75021;SDS011;63583;49.976;20.182;2024-01-16T01:51:53;6.03;;;3.45;;
75021;SDS011;63583;49.976;20.182;2024-01-16T01:54:20;7.43;;;4.43;;
75021;SDS011;63583;49.976;20.182;2024-01-16T01:56:48;7.43;;;4.05;;
75021;SDS011;63583;49.976;20.182;2024-01-16T01:59:14;8.63;;;4.63;;
75021;SDS011;63583;49.976;20.182;2024-01-16T02:01:44;8.88;;;4.43;;
75021;SDS011;63583;49.976;20.182;2024-01-16T02:04:12;9.48;;;5.00;;
75021;SDS011;63583;49.976;20.182;2024-01-16T02:06:43;9.48;;;4.82;;
75021;SDS011;63583;49.976;20.182;2024-01-16T02:09:10;9.68;;;4.53;;
75021;SDS011;63583;49.976;20.182;2024-01-16T02:11:41;9.50;;;4.85;;
75021;SDS011;63583;49.976;20.182;2024-01-16T02:14:08;9.93;;;4.55;;
75021;SDS011;63583;49.976;20.182;2024-01-16T02:16:35;9.60;;;4.93;;
75021;SDS011;63583;49.976;20.182;2024-01-16T02:19:04;9.10;;;4.00;;
75021;SDS011;63583;49.976;20.182;2024-01-16T02:21:35;8.32;;;4.30;;
75021;SDS011;63583;49.976;20.182;2024-01-16T02:24:05;7.10;;;3.78;;
75021;SDS011;63583;49.976;20.182;2024-01-16T02:26:31;8.07;;;4.63;;
75021;SDS011;63583;49.976;20.182;2024-01-16T02:28:58;7.15;;;3.83;;
75021;SDS011;63583;49.976;20.182;2024-01-16T02:31:26;10.70;;;4.50;;
75021;SDS011;63583;49.976;20.182;2024-01-16T02:33:52;9.10;;;4.38;;
75021;SDS011;63583;49.976;20.182;2024-01-16T02:36:18;5.50;;;3.45;;
75021;SDS011;63583;49.976;20.182;2024-01-16T02:38:44;8.60;;;4.13;;
75021;SDS011;63583;49.976;20.182;2024-01-16T02:41:12;8.88;;;3.63;;
75021;SDS011;63583;49.976;20.182;2024-01-16T02:43:39;7.65;;;3.58;;
75021;SDS011;63583;49.976;20.182;2024-01-16T02:46:05;7.18;;;4.13;;
75021;SDS011;63583;49.976;20.182;2024-01-16T02:48:30;7.10;;;3.28;;
75021;SDS011;63583;49.976;20.182;2024-01-16T02:50:56;8.05;;;3.80;;
75021;SDS011;63583;49.976;20.182;2024-01-16T02:53:22;7.88;;;3.63;;
75021;SDS011;63583;49.976;20.182;2024-01-16T02:55:48;7.60;;;3.53;;
75021;SDS011;63583;49.976;20.182;2024-01-16T02:58:14;6.45;;;3.45;;
75021;SDS011;63583;49.976;20.182;2024-01-16T03:00:40;6.78;;;4.10;;
75021;SDS011;63583;49.976;20.182;2024-01-16T03:03:06;6.72;;;3.42;;
75021;SDS011;63583;49.976;20.182;2024-01-16T03:05:32;5.88;;;3.20;;
75021;SDS011;63583;49.976;20.182;2024-01-16T03:07:57;6.38;;;3.60;;
75021;SDS011;63583;49.976;20.182;2024-01-16T03:10:23;7.00;;;4.00;;
75021;SDS011;63583;49.976;20.182;2024-01-16T03:12:49;8.30;;;4.35;;
75021;SDS011;63583;49.976;20.182;2024-01-16T03:15:14;7.57;;;3.58;;
75021;SDS011;63583;49.976;20.182;2024-01-16T03:17:40;9.13;;;4.00;;
75021;SDS011;63583;49.976;20.182;2024-01-16T03:20:06;8.15;;;3.70;;
75021;SDS011;63583;49.976;20.182;2024-01-16T03:22:32;8.45;;;3.80;;
75021;SDS011;63583;49.976;20.182;2024-01-16T03:24:58;7.38;;;3.05;;
75021;SDS011;63583;49.976;20.182;2024-01-16T03:27:23;7.45;;;3.58;;
75021;SDS011;63583;49.976;20.182;2024-01-16T03:29:49;5.63;;;3.45;;
75021;SDS011;63583;49.976;20.182;2024-01-16T03:32:15;5.57;;;3.60;;
75021;SDS011;63583;49.976;20.182;2024-01-16T03:34:41;8.45;;;3.67;;
75021;SDS011;63583;49.976;20.182;2024-01-16T03:37:07;6.07;;;3.60;;
75021;SDS011;63583;49.976;20.182;2024-01-16T03:39:33;5.78;;;3.65;;
75021;SDS011;63583;49.976;20.182;2024-01-16T03:41:58;7.18;;;4.18;;
75021;SDS011;63583;49.976;20.182;2024-01-16T03:44:24;7.70;;;3.63;;
75021;SDS011;63583;49.976;20.182;2024-01-16T03:46:50;6.00;;;3.17;;
75021;SDS011;63583;49.976;20.182;2024-01-16T03:49:15;10.35;;;3.85;;
75021;SDS011;63583;49.976;20.182;2024-01-16T03:51:41;4.97;;;2.85;;
75021;SDS011;63583;49.976;20.182;2024-01-16T03:54:12;6.85;;;3.58;;
75021;SDS011;63583;49.976;20.182;2024-01-16T03:56:38;5.72;;;3.50;;
75021;SDS011;63583;49.976;20.182;2024-01-16T03:59:05;5.88;;;3.65;;
75021;SDS011;63583;49.976;20.182;2024-01-16T04:01:32;6.47;;;2.90;;
75021;SDS011;63583;49.976;20.182;2024-01-16T04:03:58;5.80;;;3.35;;
75021;SDS011;63583;49.976;20.182;2024-01-16T04:06:24;6.13;;;2.65;;
75021;SDS011;63583;49.976;20.182;2024-01-16T04:08:51;5.50;;;3.30;;
75021;SDS011;63583;49.976;20.182;2024-01-16T04:11:16;5.18;;;3.53;;
75021;SDS011;63583;49.976;20.182;2024-01-16T04:13:42;7.13;;;3.63;;
75021;SDS011;63583;49.976;20.182;2024-01-16T04:16:08;7.00;;;3.20;;
75021;SDS011;63583;49.976;20.182;2024-01-16T04:18:37;6.10;;;3.28;;
75021;SDS011;63583;49.976;20.182;2024-01-16T04:21:05;5.60;;;3.03;;
75021;SDS011;63583;49.976;20.182;2024-01-16T04:23:32;8.00;;;3.22;;
75021;SDS011;63583;49.976;20.182;2024-01-16T04:25:57;6.88;;;3.72;;
75021;SDS011;63583;49.976;20.182;2024-01-16T04:28:24;7.53;;;3.40;;
75021;SDS011;63583;49.976;20.182;2024-01-16T04:30:49;7.20;;;3.92;;
75021;SDS011;63583;49.976;20.182;2024-01-16T04:33:16;7.72;;;3.95;;
75021;SDS011;63583;49.976;20.182;2024-01-16T04:35:41;5.80;;;3.53;;
75021;SDS011;63583;49.976;20.182;2024-01-16T04:38:07;6.45;;;3.25;;
75021;SDS011;63583;49.976;20.182;2024-01-16T04:40:33;6.38;;;3.75;;
75021;SDS011;63583;49.976;20.182;2024-01-16T04:42:59;6.30;;;3.58;;
75021;SDS011;63583;49.976;20.182;2024-01-16T04:45:25;7.35;;;3.92;;
75021;SDS011;63583;49.976;20.182;2024-01-16T04:47:51;7.00;;;3.95;;
75021;SDS011;63583;49.976;20.182;2024-01-16T04:50:17;6.75;;;3.97;;
75021;SDS011;63583;49.976;20.182;2024-01-16T04:52:44;6.07;;;3.78;;
75021;SDS011;63583;49.976;20.182;2024-01-16T04:55:10;10.52;;;5.22;;
75021;SDS011;63583;49.976;20.182;2024-01-16T04:57:36;8.02;;;4.50;;
75021;SDS011;63583;49.976;20.182;2024-01-16T05:00:02;6.82;;;3.72;;
75021;SDS011;63583;49.976;20.182;2024-01-16T05:02:33;7.18;;;3.90;;
75021;SDS011;63583;49.976;20.182;2024-01-16T05:04:59;7.40;;;3.75;;
75021;SDS011;63583;49.976;20.182;2024-01-16T05:07:25;5.00;;;3.08;;
75021;SDS011;63583;49.976;20.182;2024-01-16T05:09:51;7.35;;;3.33;;
75021;SDS011;63583;49.976;20.182;2024-01-16T05:12:18;4.45;;;2.25;;
75021;SDS011;63583;49.976;20.182;2024-01-16T05:14:43;5.22;;;2.88;;
75021;SDS011;63583;49.976;20.182;2024-01-16T05:17:09;5.43;;;3.15;;
75021;SDS011;63583;49.976;20.182;2024-01-16T05:19:35;4.20;;;2.42;;
75021;SDS011;63583;49.976;20.182;2024-01-16T05:22:01;5.75;;;2.67;;
75021;SDS011;63583;49.976;20.182;2024-01-16T05:24:26;2.78;;;1.95;;
75021;SDS011;63583;49.976;20.182;2024-01-16T05:26:52;4.95;;;3.15;;
75021;SDS011;63583;49.976;20.182;2024-01-16T05:29:18;4.65;;;2.88;;
75021;SDS011;63583;49.976;20.182;2024-01-16T05:31:44;5.05;;;2.70;;
75021;SDS011;63583;49.976;20.182;2024-01-16T05:34:10;5.18;;;3.08;;
75021;SDS011;63583;49.976;20.182;2024-01-16T05:36:36;3.55;;;2.22;;
75021;SDS011;63583;49.976;20.182;2024-01-16T05:39:02;5.65;;;2.88;;
75021;SDS011;63583;49.976;20.182;2024-01-16T05:41:34;6.00;;;3.42;;
75021;SDS011;63583;49.976;20.182;2024-01-16T05:44:00;7.80;;;3.63;;
75021;SDS011;63583;49.976;20.182;2024-01-16T05:46:32;6.82;;;3.05;;
75021;SDS011;63583;49.976;20.182;2024-01-16T05:48:58;4.68;;;2.80;;
75021;SDS011;63583;49.976;20.182;2024-01-16T05:51:25;4.28;;;2.47;;
75021;SDS011;63583;49.976;20.182;2024-01-16T05:53:52;5.00;;;3.17;;
75021;SDS011;63583;49.976;20.182;2024-01-16T05:56:18;6.47;;;3.30;;
75021;SDS011;63583;49.976;20.182;2024-01-16T05:58:44;7.95;;;3.72;;
75021;SDS011;63583;49.976;20.182;2024-01-16T06:01:10;6.63;;;3.20;;
75021;SDS011;63583;49.976;20.182;2024-01-16T06:03:38;5.80;;;3.38;;
75021;SDS011;63583;49.976;20.182;2024-01-16T06:06:05;5.13;;;3.10;;
75021;SDS011;63583;49.976;20.182;2024-01-16T06:08:32;5.68;;;3.40;;
75021;SDS011;63583;49.976;20.182;2024-01-16T06:10:59;6.97;;;3.42;;
75021;SDS011;63583;49.976;20.182;2024-01-16T06:13:25;6.00;;;3.15;;
75021;SDS011;63583;49.976;20.182;2024-01-16T06:15:51;4.82;;;2.95;;
75021;SDS011;63583;49.976;20.182;2024-01-16T06:18:17;6.18;;;3.22;;
75021;SDS011;63583;49.976;20.182;2024-01-16T06:20:43;6.57;;;3.50;;
75021;SDS011;63583;49.976;20.182;2024-01-16T06:23:08;5.88;;;3.55;;
75021;SDS011;63583;49.976;20.182;2024-01-16T06:25:34;6.25;;;3.88;;
75021;SDS011;63583;49.976;20.182;2024-01-16T06:28:00;6.90;;;3.67;;
75021;SDS011;63583;49.976;20.182;2024-01-16T06:30:26;7.03;;;3.88;;
75021;SDS011;63583;49.976;20.182;2024-01-16T06:32:52;6.72;;;4.05;;
75021;SDS011;63583;49.976;20.182;2024-01-16T06:35:17;7.40;;;4.60;;
75021;SDS011;63583;49.976;20.182;2024-01-16T06:37:43;8.63;;;3.83;;
75021;SDS011;63583;49.976;20.182;2024-01-16T06:40:09;6.55;;;3.67;;
75021;SDS011;63583;49.976;20.182;2024-01-16T06:42:35;7.47;;;4.35;;
75021;SDS011;63583;49.976;20.182;2024-01-16T06:45:02;7.75;;;4.28;;
75021;SDS011;63583;49.976;20.182;2024-01-16T06:47:28;7.07;;;3.58;;
75021;SDS011;63583;49.976;20.182;2024-01-16T06:49:54;7.80;;;4.40;;
75021;SDS011;63583;49.976;20.182;2024-01-16T06:52:20;8.85;;;4.63;;
75021;SDS011;63583;49.976;20.182;2024-01-16T06:54:46;9.90;;;4.88;;
75021;SDS011;63583;49.976;20.182;2024-01-16T06:57:12;9.77;;;4.75;;
75021;SDS011;63583;49.976;20.182;2024-01-16T06:59:38;10.55;;;4.82;;
75021;SDS011;63583;49.976;20.182;2024-01-16T07:02:03;10.55;;;5.18;;
75021;SDS011;63583;49.976;20.182;2024-01-16T07:04:29;9.70;;;4.32;;
75021;SDS011;63583;49.976;20.182;2024-01-16T07:06:55;9.25;;;4.20;;
75021;SDS011;63583;49.976;20.182;2024-01-16T07:09:21;8.70;;;4.25;;
75021;SDS011;63583;49.976;20.182;2024-01-16T07:11:47;8.82;;;4.65;;
75021;SDS011;63583;49.976;20.182;2024-01-16T07:14:13;9.93;;;4.80;;
75021;SDS011;63583;49.976;20.182;2024-01-16T07:16:39;8.13;;;4.55;;
75021;SDS011;63583;49.976;20.182;2024-01-16T07:19:05;9.00;;;4.30;;
75021;SDS011;63583;49.976;20.182;2024-01-16T07:21:30;9.25;;;4.95;;
75021;SDS011;63583;49.976;20.182;2024-01-16T07:23:57;8.13;;;4.55;;
75021;SDS011;63583;49.976;20.182;2024-01-16T07:26:23;10.00;;;4.20;;
75021;SDS011;63583;49.976;20.182;2024-01-16T07:28:49;7.72;;;4.63;;
75021;SDS011;63583;49.976;20.182;2024-01-16T07:31:15;9.38;;;5.03;;
75021;SDS011;63583;49.976;20.182;2024-01-16T07:33:42;10.23;;;5.22;;
75021;SDS011;63583;49.976;20.182;2024-01-16T07:36:08;11.93;;;4.30;;
75021;SDS011;63583;49.976;20.182;2024-01-16T07:38:35;9.75;;;5.28;;
75021;SDS011;63583;49.976;20.182;2024-01-16T07:41:01;8.23;;;3.88;;
75021;SDS011;63583;49.976;20.182;2024-01-16T07:43:27;8.68;;;4.53;;
75021;SDS011;63583;49.976;20.182;2024-01-16T07:45:55;9.48;;;4.93;;
75021;SDS011;63583;49.976;20.182;2024-01-16T07:48:21;9.10;;;4.97;;
75021;SDS011;63583;49.976;20.182;2024-01-16T07:50:48;8.60;;;4.43;;
75021;SDS011;63583;49.976;20.182;2024-01-16T07:53:14;6.75;;;3.70;;
75021;SDS011;63583;49.976;20.182;2024-01-16T07:55:41;9.55;;;4.95;;
75021;SDS011;63583;49.976;20.182;2024-01-16T07:58:07;11.70;;;5.53;;
75021;SDS011;63583;49.976;20.182;2024-01-16T08:00:33;9.23;;;4.90;;
75021;SDS011;63583;49.976;20.182;2024-01-16T08:02:59;9.57;;;5.00;;
75021;SDS011;63583;49.976;20.182;2024-01-16T08:05:24;10.15;;;4.22;;
75021;SDS011;63583;49.976;20.182;2024-01-16T08:07:56;9.13;;;4.80;;
75021;SDS011;63583;49.976;20.182;2024-01-16T08:10:22;8.43;;;5.15;;
75021;SDS011;63583;49.976;20.182;2024-01-16T08:12:48;8.90;;;4.80;;
75021;SDS011;63583;49.976;20.182;2024-01-16T08:15:13;9.75;;;4.88;;
75021;SDS011;63583;49.976;20.182;2024-01-16T08:17:39;7.93;;;4.53;;
75021;SDS011;63583;49.976;20.182;2024-01-16T08:20:05;8.75;;;4.57;;
75021;SDS011;63583;49.976;20.182;2024-01-16T08:22:32;10.63;;;5.32;;
75021;SDS011;63583;49.976;20.182;2024-01-16T08:24:57;9.80;;;4.95;;
75021;SDS011;63583;49.976;20.182;2024-01-16T08:27:23;8.85;;;4.40;;
75021;SDS011;63583;49.976;20.182;2024-01-16T08:29:49;8.73;;;4.22;;
75021;SDS011;63583;49.976;20.182;2024-01-16T08:32:16;10.82;;;4.75;;
75021;SDS011;63583;49.976;20.182;2024-01-16T08:34:42;8.57;;;4.05;;
75021;SDS011;63583;49.976;20.182;2024-01-16T08:37:10;7.55;;;4.05;;
75021;SDS011;63583;49.976;20.182;2024-01-16T08:39:37;7.20;;;3.65;;
75021;SDS011;63583;49.976;20.182;2024-01-16T08:42:02;7.35;;;4.40;;
75021;SDS011;63583;49.976;20.182;2024-01-16T08:44:29;8.52;;;3.40;;
75021;SDS011;63583;49.976;20.182;2024-01-16T08:46:55;7.15;;;3.35;;
75021;SDS011;63583;49.976;20.182;2024-01-16T08:49:21;8.48;;;3.88;;
75021;SDS011;63583;49.976;20.182;2024-01-16T08:51:48;7.22;;;3.33;;
75021;SDS011;63583;49.976;20.182;2024-01-16T08:54:13;5.93;;;3.03;;
75021;SDS011;63583;49.976;20.182;2024-01-16T08:56:39;5.50;;;2.50;;
75021;SDS011;63583;49.976;20.182;2024-01-16T08:59:05;5.35;;;3.03;;
75021;SDS011;63583;49.976;20.182;2024-01-16T09:01:33;4.28;;;2.28;;
75021;SDS011;63583;49.976;20.182;2024-01-16T09:03:59;5.78;;;2.80;;
75021;SDS011;63583;49.976;20.182;2024-01-16T09:06:25;5.22;;;2.80;;
75021;SDS011;63583;49.976;20.182;2024-01-16T09:08:51;5.07;;;2.33;;
75021;SDS011;63583;49.976;20.182;2024-01-16T09:11:18;6.47;;;3.30;;
75021;SDS011;63583;49.976;20.182;2024-01-16T09:13:45;6.10;;;2.58;;
75021;SDS011;63583;49.976;20.182;2024-01-16T09:16:11;5.97;;;2.75;;
75021;SDS011;63583;49.976;20.182;2024-01-16T09:18:40;7.43;;;3.10;;
75021;SDS011;63583;49.976;20.182;2024-01-16T09:21:08;5.40;;;2.40;;
75021;SDS011;63583;49.976;20.182;2024-01-16T09:23:34;4.82;;;2.90;;
75021;SDS011;63583;49.976;20.182;2024-01-16T09:26:01;6.47;;;3.38;;
75021;SDS011;63583;49.976;20.182;2024-01-16T09:28:27;5.63;;;2.83;;
75021;SDS011;63583;49.976;20.182;2024-01-16T09:30:54;5.18;;;3.00;;
75021;SDS011;63583;49.976;20.182;2024-01-16T09:33:23;5.63;;;2.78;;
75021;SDS011;63583;49.976;20.182;2024-01-16T09:35:51;5.43;;;3.47;;
75021;SDS011;63583;49.976;20.182;2024-01-16T09:38:17;5.80;;;2.97;;
75021;SDS011;63583;49.976;20.182;2024-01-16T09:40:43;6.90;;;3.13;;
75021;SDS011;63583;49.976;20.182;2024-01-16T09:43:09;7.60;;;3.33;;
75021;SDS011;63583;49.976;20.182;2024-01-16T09:45:37;6.13;;;3.00;;
75021;SDS011;63583;49.976;20.182;2024-01-16T09:48:03;6.15;;;2.88;;
75021;SDS011;63583;49.976;20.182;2024-01-16T09:50:30;5.22;;;2.53;;
75021;SDS011;63583;49.976;20.182;2024-01-16T09:52:56;7.40;;;2.90;;
75021;SDS011;63583;49.976;20.182;2024-01-16T09:55:24;4.65;;;2.80;;
75021;SDS011;63583;49.976;20.182;2024-01-16T09:57:52;5.50;;;2.92;;
75021;SDS011;63583;49.976;20.182;2024-01-16T10:02:46;5.13;;;1.95;;
75021;SDS011;63583;49.976;20.182;2024-01-16T10:05:14;5.47;;;2.75;;
75021;SDS011;63583;49.976;20.182;2024-01-16T10:07:41;5.03;;;2.45;;
75021;SDS011;63583;49.976;20.182;2024-01-16T10:10:12;5.10;;;2.45;;
75021;SDS011;63583;49.976;20.182;2024-01-16T10:12:38;4.80;;;2.53;;
75021;SDS011;63583;49.976;20.182;2024-01-16T10:15:07;5.53;;;2.80;;
75021;SDS011;63583;49.976;20.182;2024-01-16T10:17:40;6.00;;;3.17;;
75021;SDS011;63583;49.976;20.182;2024-01-16T10:20:08;4.50;;;2.50;;
75021;SDS011;63583;49.976;20.182;2024-01-16T10:22:52;3.53;;;1.30;;
75021;SDS011;63583;49.976;20.182;2024-01-16T10:25:21;3.88;;;2.33;;
75021;SDS011;63583;49.976;20.182;2024-01-16T10:27:48;4.50;;;2.03;;
75021;SDS011;63583;49.976;20.182;2024-01-16T10:30:15;3.45;;;1.75;;
75021;SDS011;63583;49.976;20.182;2024-01-16T10:32:47;7.38;;;4.35;;
75021;SDS011;63583;49.976;20.182;2024-01-16T10:35:15;4.80;;;2.05;;
75021;SDS011;63583;49.976;20.182;2024-01-16T10:37:45;4.18;;;1.77;;
75021;SDS011;63583;49.976;20.182;2024-01-16T10:40:24;2.67;;;1.35;;
75021;SDS011;63583;49.976;20.182;2024-01-16T10:42:57;4.10;;;2.13;;
75021;SDS011;63583;49.976;20.182;2024-01-16T10:45:25;5.50;;;2.03;;
75021;SDS011;63583;49.976;20.182;2024-01-16T10:48:04;4.55;;;2.38;;
75021;SDS011;63583;49.976;20.182;2024-01-16T10:50:31;8.30;;;3.70;;
75021;SDS011;63583;49.976;20.182;2024-01-16T10:53:05;6.78;;;4.00;;
75021;SDS011;63583;49.976;20.182;2024-01-16T10:55:41;4.13;;;2.28;;
75021;SDS011;63583;49.976;20.182;2024-01-16T10:58:13;5.50;;;2.60;;
75021;SDS011;63583;49.976;20.182;2024-01-16T11:00:39;3.40;;;2.03;;
75021;SDS011;63583;49.976;20.182;2024-01-16T11:03:09;4.55;;;2.42;;
75021;SDS011;63583;49.976;20.182;2024-01-16T11:05:42;3.35;;;2.22;;
75021;SDS011;63583;49.976;20.182;2024-01-16T11:08:11;6.95;;;2.40;;
75021;SDS011;63583;49.976;20.182;2024-01-16T11:10:39;4.70;;;2.40;;
75021;SDS011;63583;49.976;20.182;2024-01-16T11:13:05;5.28;;;2.83;;
75021;SDS011;63583;49.976;20.182;2024-01-16T11:15:32;4.47;;;2.10;;
75021;SDS011;63583;49.976;20.182;2024-01-16T11:17:59;3.88;;;2.03;;
75021;SDS011;63583;49.976;20.182;2024-01-16T11:20:27;3.50;;;2.10;;
75021;SDS011;63583;49.976;20.182;2024-01-16T11:22:53;4.53;;;2.20;;
75021;SDS011;63583;49.976;20.182;2024-01-16T11:25:31;5.38;;;2.05;;
75021;SDS011;63583;49.976;20.182;2024-01-16T11:28:07;6.07;;;2.47;;
75021;SDS011;63583;49.976;20.182;2024-01-16T11:30:37;5.72;;;2.33;;
75021;SDS011;63583;49.976;20.182;2024-01-16T11:33:03;4.10;;;2.28;;
75021;SDS011;63583;49.976;20.182;2024-01-16T11:35:36;5.13;;;2.08;;
75021;SDS011;63583;49.976;20.182;2024-01-16T11:38:06;3.97;;;1.48;;
75021;SDS011;63583;49.976;20.182;2024-01-16T11:40:35;5.30;;;2.25;;
75021;SDS011;63583;49.976;20.182;2024-01-16T11:45:58;4.00;;;2.28;;
75021;SDS011;63583;49.976;20.182;2024-01-16T11:48:24;3.65;;;1.80;;
75021;SDS011;63583;49.976;20.182;2024-01-16T11:50:51;3.35;;;1.92;;
75021;SDS011;63583;49.976;20.182;2024-01-16T12:01:31;3.70;;;1.77;;
75021;SDS011;63583;49.976;20.182;2024-01-16T12:04:03;4.47;;;2.17;;
75021;SDS011;63583;49.976;20.182;2024-01-16T12:06:31;4.32;;;1.92;;
75021;SDS011;63583;49.976;20.182;2024-01-16T12:09:13;4.28;;;2.17;;
75021;SDS011;63583;49.976;20.182;2024-01-16T12:11:40;3.70;;;1.90;;
75021;SDS011;63583;49.976;20.182;2024-01-16T12:14:12;4.43;;;2.28;;
75021;SDS011;63583;49.976;20.182;2024-01-16T12:16:38;3.80;;;2.20;;
75021;SDS011;63583;49.976;20.182;2024-01-16T12:19:07;3.50;;;1.67;;
75021;SDS011;63583;49.976;20.182;2024-01-16T12:21:34;4.25;;;2.00;;
75021;SDS011;63583;49.976;20.182;2024-01-16T12:24:04;2.42;;;1.67;;
75021;SDS011;63583;49.976;20.182;2024-01-16T12:26:30;5.47;;;2.88;;
75021;SDS011;63583;49.976;20.182;2024-01-16T12:28:57;4.15;;;2.38;;
75021;SDS011;63583;49.976;20.182;2024-01-16T12:31:24;6.15;;;3.30;;
75021;SDS011;63583;49.976;20.182;2024-01-16T12:33:50;6.82;;;3.22;;
75021;SDS011;63583;49.976;20.182;2024-01-16T12:36:17;4.88;;;1.77;;
75021;SDS011;63583;49.976;20.182;2024-01-16T12:38:43;6.35;;;2.83;;
75021;SDS011;63583;49.976;20.182;2024-01-16T12:41:09;8.60;;;3.40;;
75021;SDS011;63583;49.976;20.182;2024-01-16T12:43:36;6.82;;;2.92;;
75021;SDS011;63583;49.976;20.182;2024-01-16T12:46:03;9.13;;;3.40;;
75021;SDS011;63583;49.976;20.182;2024-01-16T12:48:28;10.10;;;4.00;;
75021;SDS011;63583;49.976;20.182;2024-01-16T12:51:01;6.35;;;3.50;;
75021;SDS011;63583;49.976;20.182;2024-01-16T12:53:28;6.50;;;3.25;;
75021;SDS011;63583;49.976;20.182;2024-01-16T12:55:58;13.32;;;6.00;;
75021;SDS011;63583;49.976;20.182;2024-01-16T12:58:34;15.60;;;6.32;;
75021;SDS011;63583;49.976;20.182;2024-01-16T13:03:52;5.22;;;2.85;;
75021;SDS011;63583;49.976;20.182;2024-01-16T13:06:19;6.68;;;3.60;;
75021;SDS011;63583;49.976;20.182;2024-01-16T13:08:46;7.30;;;4.05;;
75021;SDS011;63583;49.976;20.182;2024-01-16T13:11:13;6.45;;;3.78;;
75021;SDS011;63583;49.976;20.182;2024-01-16T13:13:45;8.15;;;4.57;;
75021;SDS011;63583;49.976;20.182;2024-01-16T13:16:13;4.97;;;2.88;;
75021;SDS011;63583;49.976;20.182;2024-01-16T13:18:41;6.05;;;2.40;;
75021;SDS011;63583;49.976;20.182;2024-01-16T13:21:08;6.30;;;3.20;;
75021;SDS011;63583;49.976;20.182;2024-01-16T13:23:35;6.93;;;3.13;;
75021;SDS011;63583;49.976;20.182;2024-01-16T13:26:01;7.78;;;3.58;;
75021;SDS011;63583;49.976;20.182;2024-01-16T13:28:30;4.45;;;2.20;;
75021;SDS011;63583;49.976;20.182;2024-01-16T13:30:56;4.47;;;2.50;;
75021;SDS011;63583;49.976;20.182;2024-01-16T13:33:25;5.40;;;2.67;;
75021;SDS011;63583;49.976;20.182;2024-01-16T13:35:55;5.20;;;2.65;;
75021;SDS011;63583;49.976;20.182;2024-01-16T13:38:22;5.30;;;2.63;;
75021;SDS011;63583;49.976;20.182;2024-01-16T13:40:49;4.93;;;2.42;;
75021;SDS011;63583;49.976;20.182;2024-01-16T13:43:15;4.75;;;2.83;;
75021;SDS011;63583;49.976;20.182;2024-01-16T13:45:41;6.25;;;2.42;;
75021;SDS011;63583;49.976;20.182;2024-01-16T13:48:07;6.70;;;2.85;;
75021;SDS011;63583;49.976;20.182;2024-01-16T13:50:35;5.30;;;2.55;;
75021;SDS011;63583;49.976;20.182;2024-01-16T13:53:01;9.80;;;3.92;;
75021;SDS011;63583;49.976;20.182;2024-01-16T13:55:28;6.65;;;3.33;;
75021;SDS011;63583;49.976;20.182;2024-01-16T13:57:54;6.03;;;2.92;;
75021;SDS011;63583;49.976;20.182;2024-01-16T14:00:20;8.45;;;2.90;;
75021;SDS011;63583;49.976;20.182;2024-01-16T14:02:47;7.20;;;3.80;;
75021;SDS011;63583;49.976;20.182;2024-01-16T14:05:15;6.18;;;3.47;;
75021;SDS011;63583;49.976;20.182;2024-01-16T14:07:45;8.20;;;3.60;;
75021;SDS011;63583;49.976;20.182;2024-01-16T14:10:12;7.10;;;3.17;;
75021;SDS011;63583;49.976;20.182;2024-01-16T14:12:42;6.00;;;3.47;;
75021;SDS011;63583;49.976;20.182;2024-01-16T14:15:13;5.30;;;2.92;;
75021;SDS011;63583;49.976;20.182;2024-01-16T14:17:48;7.80;;;3.78;;
75021;SDS011;63583;49.976;20.182;2024-01-16T14:20:16;8.18;;;4.43;;
75021;SDS011;63583;49.976;20.182;2024-01-16T14:22:43;10.30;;;4.50;;
75021;SDS011;63583;49.976;20.182;2024-01-16T14:25:12;7.90;;;3.97;;
75021;SDS011;63583;49.976;20.182;2024-01-16T14:27:43;9.43;;;4.85;;
75021;SDS011;63583;49.976;20.182;2024-01-16T14:30:11;8.55;;;4.68;;
75021;SDS011;63583;49.976;20.182;2024-01-16T14:32:42;13.32;;;5.78;;
75021;SDS011;63583;49.976;20.182;2024-01-16T14:35:13;13.57;;;4.72;;
75021;SDS011;63583;49.976;20.182;2024-01-16T14:37:40;12.18;;;5.47;;
75021;SDS011;63583;49.976;20.182;2024-01-16T14:40:06;12.85;;;6.75;;
75021;SDS011;63583;49.976;20.182;2024-01-16T14:42:41;18.20;;;6.57;;
75021;SDS011;63583;49.976;20.182;2024-01-16T14:45:13;13.63;;;5.85;;
75021;SDS011;63583;49.976;20.182;2024-01-16T14:47:40;18.80;;;9.23;;
75021;SDS011;63583;49.976;20.182;2024-01-16T14:50:09;17.85;;;8.88;;